KRMG/RMG METAR and TAF weather

Enter ICAO airport designator
Station Type Date Time Source
KRMG METAR 2021/09/16 21:38 UTC NOAA

KRMG 162138Z AUTO 13005KT 10SM FEW019 SCT026 BKN036 26/21 A3001 RMK AO2 T02560206


Station Type Date Time Source
KRMG Decoded METAR 2021/09/16 21:38 UTC NOAA

ROME R. B. RUSSELL AIRPORT, GA, United States (KRMG) 34-21N 085-10W 193M
Sep 16, 2021 - 05:38 PM EDT / 2021.09.16 2138 UTC
Wind: from the SE (130 degrees) at 6 MPH (5 KT):0
Visibility: 10 mile(s):0
Sky conditions: mostly cloudy
Temperature: 78.1 F (25.6 C)
Dew Point: 69.1 F (20.6 C)
Relative Humidity: 73%
Pressure (altimeter): 30.01 in. Hg (1016 hPa)
ob: KRMG 162138Z AUTO 13005KT 10SM FEW019 SCT026 BKN036 26/21 A3001 RMK AO2 T02560206
cycle: 21

Station Type Date Time Source
KRMG TAF UTC NOAA

Error!

Example: see airport list